sensor_id;sensor_type;location;lat;lon;timestamp;temperature;humidity
47338;DHT22;33069;51.970;5.892;2022-08-23T00:01:39;21.30;61.10
47338;DHT22;33069;51.970;5.892;2022-08-23T00:04:20;21.30;61.60
47338;DHT22;33069;51.970;5.892;2022-08-23T00:06:48;21.30;61.60
47338;DHT22;33069;51.970;5.892;2022-08-23T00:09:14;21.20;61.80
47338;DHT22;33069;51.970;5.892;2022-08-23T00:11:53;21.30;62.10
47338;DHT22;33069;51.970;5.892;2022-08-23T00:14:22;21.20;62.00
47338;DHT22;33069;51.970;5.892;2022-08-23T00:16:49;21.10;62.00
47338;DHT22;33069;51.970;5.892;2022-08-23T00:19:17;20.90;62.40
47338;DHT22;33069;51.970;5.892;2022-08-23T00:21:44;20.80;62.90
47338;DHT22;33069;51.970;5.892;2022-08-23T00:24:12;20.80;63.10
47338;DHT22;33069;51.970;5.892;2022-08-23T00:29:17;20.90;62.90
47338;DHT22;33069;51.970;5.892;2022-08-23T00:31:44;20.70;63.30
47338;DHT22;33069;51.970;5.892;2022-08-23T00:34:10;20.70;63.50
47338;DHT22;33069;51.970;5.892;2022-08-23T00:36:37;20.70;63.40
47338;DHT22;33069;51.970;5.892;2022-08-23T00:39:03;20.60;63.50
47338;DHT22;33069;51.970;5.892;2022-08-23T00:41:30;20.60;63.80
47338;DHT22;33069;51.970;5.892;2022-08-23T00:43:56;20.70;63.70
47338;DHT22;33069;51.970;5.892;2022-08-23T00:47:02;20.60;63.90
47338;DHT22;33069;51.970;5.892;2022-08-23T00:49:53;20.60;63.80
47338;DHT22;33069;51.970;5.892;2022-08-23T00:52:41;20.80;63.50
47338;DHT22;33069;51.970;5.892;2022-08-23T00:55:08;20.70;63.80
47338;DHT22;33069;51.970;5.892;2022-08-23T00:57:34;20.80;63.70
47338;DHT22;33069;51.970;5.892;2022-08-23T01:00:06;20.70;63.60
47338;DHT22;33069;51.970;5.892;2022-08-23T01:02:33;20.60;63.90
47338;DHT22;33069;51.970;5.892;2022-08-23T01:04:59;20.60;64.10
47338;DHT22;33069;51.970;5.892;2022-08-23T01:10:13;20.40;64.50
47338;DHT22;33069;51.970;5.892;2022-08-23T01:12:45;20.40;64.40
47338;DHT22;33069;51.970;5.892;2022-08-23T01:15:18;20.30;64.60
47338;DHT22;33069;51.970;5.892;2022-08-23T01:17:53;20.30;64.80
47338;DHT22;33069;51.970;5.892;2022-08-23T01:20:22;20.20;65.10
47338;DHT22;33069;51.970;5.892;2022-08-23T01:23:07;20.20;65.20
47338;DHT22;33069;51.970;5.892;2022-08-23T01:25:34;20.10;65.50
47338;DHT22;33069;51.970;5.892;2022-08-23T01:28:02;20.00;65.60
47338;DHT22;33069;51.970;5.892;2022-08-23T01:30:30;20.00;65.90
47338;DHT22;33069;51.970;5.892;2022-08-23T01:33:00;20.00;65.70
47338;DHT22;33069;51.970;5.892;2022-08-23T01:35:37;20.10;65.40
47338;DHT22;33069;51.970;5.892;2022-08-23T01:38:03;20.10;65.20
47338;DHT22;33069;51.970;5.892;2022-08-23T01:40:30;19.90;66.00
47338;DHT22;33069;51.970;5.892;2022-08-23T01:42:56;19.90;66.10
47338;DHT22;33069;51.970;5.892;2022-08-23T01:45:22;19.90;66.10
47338;DHT22;33069;51.970;5.892;2022-08-23T01:47:48;19.80;65.80
47338;DHT22;33069;51.970;5.892;2022-08-23T01:50:14;20.00;65.40
47338;DHT22;33069;51.970;5.892;2022-08-23T01:52:41;20.00;65.60
47338;DHT22;33069;51.970;5.892;2022-08-23T01:55:07;19.80;66.10
47338;DHT22;33069;51.970;5.892;2022-08-23T01:57:33;19.80;66.20
47338;DHT22;33069;51.970;5.892;2022-08-23T01:59:59;19.70;66.80
47338;DHT22;33069;51.970;5.892;2022-08-23T02:02:25;19.60;67.10
47338;DHT22;33069;51.970;5.892;2022-08-23T02:04:51;19.60;66.90
47338;DHT22;33069;51.970;5.892;2022-08-23T02:07:17;19.60;67.10
47338;DHT22;33069;51.970;5.892;2022-08-23T02:09:43;19.50;67.20
47338;DHT22;33069;51.970;5.892;2022-08-23T02:12:09;19.60;67.40
47338;DHT22;33069;51.970;5.892;2022-08-23T02:14:35;19.70;66.70
47338;DHT22;33069;51.970;5.892;2022-08-23T02:17:02;19.70;66.30
47338;DHT22;33069;51.970;5.892;2022-08-23T02:19:29;19.60;66.50
47338;DHT22;33069;51.970;5.892;2022-08-23T02:21:55;19.50;66.70
47338;DHT22;33069;51.970;5.892;2022-08-23T02:24:23;19.70;66.20
47338;DHT22;33069;51.970;5.892;2022-08-23T02:26:52;19.80;65.50
47338;DHT22;33069;51.970;5.892;2022-08-23T02:29:20;19.70;65.80
47338;DHT22;33069;51.970;5.892;2022-08-23T02:31:46;19.90;65.40
47338;DHT22;33069;51.970;5.892;2022-08-23T02:34:14;19.70;65.70
47338;DHT22;33069;51.970;5.892;2022-08-23T02:36:40;19.90;65.40
47338;DHT22;33069;51.970;5.892;2022-08-23T02:39:07;20.00;65.00
47338;DHT22;33069;51.970;5.892;2022-08-23T02:41:33;20.10;65.00
47338;DHT22;33069;51.970;5.892;2022-08-23T02:44:00;19.70;65.80
47338;DHT22;33069;51.970;5.892;2022-08-23T02:46:26;19.50;66.40
47338;DHT22;33069;51.970;5.892;2022-08-23T02:48:52;19.60;66.60
47338;DHT22;33069;51.970;5.892;2022-08-23T02:51:18;19.50;66.70
47338;DHT22;33069;51.970;5.892;2022-08-23T02:53:44;19.40;67.10
47338;DHT22;33069;51.970;5.892;2022-08-23T02:56:11;19.30;67.20
47338;DHT22;33069;51.970;5.892;2022-08-23T02:58:37;19.30;67.50
47338;DHT22;33069;51.970;5.892;2022-08-23T03:01:04;19.20;67.70
47338;DHT22;33069;51.970;5.892;2022-08-23T03:03:30;19.10;67.90
47338;DHT22;33069;51.970;5.892;2022-08-23T03:05:56;19.10;68.10
47338;DHT22;33069;51.970;5.892;2022-08-23T03:08:23;19.10;68.20
47338;DHT22;33069;51.970;5.892;2022-08-23T03:10:51;19.10;68.40
47338;DHT22;33069;51.970;5.892;2022-08-23T03:13:17;19.00;68.60
47338;DHT22;33069;51.970;5.892;2022-08-23T03:15:43;18.90;68.90
47338;DHT22;33069;51.970;5.892;2022-08-23T03:18:09;18.90;69.10
47338;DHT22;33069;51.970;5.892;2022-08-23T03:20:38;18.80;69.10
47338;DHT22;33069;51.970;5.892;2022-08-23T03:23:04;18.80;69.30
47338;DHT22;33069;51.970;5.892;2022-08-23T03:25:30;18.80;69.40
47338;DHT22;33069;51.970;5.892;2022-08-23T03:27:56;18.80;69.40
47338;DHT22;33069;51.970;5.892;2022-08-23T03:30:22;18.80;69.50
47338;DHT22;33069;51.970;5.892;2022-08-23T03:32:48;18.80;69.50
47338;DHT22;33069;51.970;5.892;2022-08-23T03:35:14;18.80;69.40
47338;DHT22;33069;51.970;5.892;2022-08-23T03:37:40;18.90;69.20
47338;DHT22;33069;51.970;5.892;2022-08-23T03:40:06;18.80;69.50
47338;DHT22;33069;51.970;5.892;2022-08-23T03:42:32;18.90;69.20
47338;DHT22;33069;51.970;5.892;2022-08-23T03:44:58;18.80;69.60
47338;DHT22;33069;51.970;5.892;2022-08-23T03:47:24;18.70;70.20
47338;DHT22;33069;51.970;5.892;2022-08-23T03:49:49;18.70;70.40
47338;DHT22;33069;51.970;5.892;2022-08-23T03:52:15;18.70;70.20
47338;DHT22;33069;51.970;5.892;2022-08-23T03:54:41;18.70;70.20
47338;DHT22;33069;51.970;5.892;2022-08-23T03:57:08;18.70;70.60
47338;DHT22;33069;51.970;5.892;2022-08-23T03:59:38;18.80;71.90
47338;DHT22;33069;51.970;5.892;2022-08-23T04:02:04;18.70;72.20
47338;DHT22;33069;51.970;5.892;2022-08-23T04:04:30;18.60;72.00
47338;DHT22;33069;51.970;5.892;2022-08-23T04:06:56;18.50;72.20
47338;DHT22;33069;51.970;5.892;2022-08-23T04:09:22;18.40;71.80
47338;DHT22;33069;51.970;5.892;2022-08-23T04:11:48;18.40;71.90
47338;DHT22;33069;51.970;5.892;2022-08-23T04:14:15;18.30;71.80
47338;DHT22;33069;51.970;5.892;2022-08-23T04:16:41;18.30;72.20
47338;DHT22;33069;51.970;5.892;2022-08-23T04:19:10;18.30;73.00
47338;DHT22;33069;51.970;5.892;2022-08-23T04:21:43;18.30;72.60
47338;DHT22;33069;51.970;5.892;2022-08-23T04:24:09;18.30;72.80
47338;DHT22;33069;51.970;5.892;2022-08-23T04:26:35;18.30;73.60
47338;DHT22;33069;51.970;5.892;2022-08-23T04:29:00;18.20;73.80
47338;DHT22;33069;51.970;5.892;2022-08-23T04:31:27;18.20;74.30
47338;DHT22;33069;51.970;5.892;2022-08-23T04:33:53;18.20;74.20
47338;DHT22;33069;51.970;5.892;2022-08-23T04:36:21;18.20;73.00
47338;DHT22;33069;51.970;5.892;2022-08-23T04:38:47;18.30;72.90
47338;DHT22;33069;51.970;5.892;2022-08-23T04:41:14;18.60;71.40
47338;DHT22;33069;51.970;5.892;2022-08-23T04:43:59;18.70;70.50
47338;DHT22;33069;51.970;5.892;2022-08-23T04:46:25;18.70;70.80
47338;DHT22;33069;51.970;5.892;2022-08-23T04:48:51;18.70;71.40
47338;DHT22;33069;51.970;5.892;2022-08-23T04:51:18;18.60;71.70
47338;DHT22;33069;51.970;5.892;2022-08-23T04:53:44;18.50;72.50
47338;DHT22;33069;51.970;5.892;2022-08-23T04:56:10;18.80;72.20
47338;DHT22;33069;51.970;5.892;2022-08-23T04:58:37;19.20;69.20
47338;DHT22;33069;51.970;5.892;2022-08-23T05:01:05;19.00;69.80
47338;DHT22;33069;51.970;5.892;2022-08-23T05:03:33;18.80;70.40
47338;DHT22;33069;51.970;5.892;2022-08-23T05:06:00;18.70;71.40
47338;DHT22;33069;51.970;5.892;2022-08-23T05:08:26;18.80;70.60
47338;DHT22;33069;51.970;5.892;2022-08-23T05:10:52;19.00;70.70
47338;DHT22;33069;51.970;5.892;2022-08-23T05:13:18;19.20;69.60
47338;DHT22;33069;51.970;5.892;2022-08-23T05:15:45;18.80;70.30
47338;DHT22;33069;51.970;5.892;2022-08-23T05:18:11;18.80;71.60
47338;DHT22;33069;51.970;5.892;2022-08-23T05:20:37;19.20;69.90
47338;DHT22;33069;51.970;5.892;2022-08-23T05:23:04;18.90;71.00
47338;DHT22;33069;51.970;5.892;2022-08-23T05:25:29;18.80;72.30
47338;DHT22;33069;51.970;5.892;2022-08-23T05:28:32;18.70;73.30
47338;DHT22;33069;51.970;5.892;2022-08-23T05:31:06;19.00;73.60
47338;DHT22;33069;51.970;5.892;2022-08-23T05:33:33;19.10;73.40
47338;DHT22;33069;51.970;5.892;2022-08-23T05:35:59;19.10;73.20
47338;DHT22;33069;51.970;5.892;2022-08-23T05:38:26;18.80;74.30
47338;DHT22;33069;51.970;5.892;2022-08-23T05:40:54;18.80;74.80
47338;DHT22;33069;51.970;5.892;2022-08-23T05:43:22;18.90;74.90
47338;DHT22;33069;51.970;5.892;2022-08-23T05:46:20;19.00;74.40
47338;DHT22;33069;51.970;5.892;2022-08-23T05:48:46;19.20;74.10
47338;DHT22;33069;51.970;5.892;2022-08-23T05:51:16;19.30;74.00
47338;DHT22;33069;51.970;5.892;2022-08-23T05:53:43;19.30;73.70
47338;DHT22;33069;51.970;5.892;2022-08-23T05:56:12;19.40;73.50
47338;DHT22;33069;51.970;5.892;2022-08-23T05:58:38;19.40;73.20
47338;DHT22;33069;51.970;5.892;2022-08-23T06:01:04;19.50;72.90
47338;DHT22;33069;51.970;5.892;2022-08-23T06:03:30;19.50;72.40
47338;DHT22;33069;51.970;5.892;2022-08-23T06:05:57;19.50;72.10
47338;DHT22;33069;51.970;5.892;2022-08-23T06:08:23;19.70;71.60
47338;DHT22;33069;51.970;5.892;2022-08-23T06:11:08;19.80;71.10
47338;DHT22;33069;51.970;5.892;2022-08-23T06:13:41;19.80;70.40
47338;DHT22;33069;51.970;5.892;2022-08-23T06:16:08;20.00;70.60
47338;DHT22;33069;51.970;5.892;2022-08-23T06:18:34;20.30;69.40
47338;DHT22;33069;51.970;5.892;2022-08-23T06:21:06;20.30;68.20
47338;DHT22;33069;51.970;5.892;2022-08-23T06:23:33;20.60;68.50
47338;DHT22;33069;51.970;5.892;2022-08-23T06:26:00;20.80;66.40
47338;DHT22;33069;51.970;5.892;2022-08-23T06:28:28;20.90;65.70
47338;DHT22;33069;51.970;5.892;2022-08-23T06:30:57;21.00;65.60
47338;DHT22;33069;51.970;5.892;2022-08-23T06:33:23;21.10;65.30
47338;DHT22;33069;51.970;5.892;2022-08-23T06:36:09;21.20;64.90
47338;DHT22;33069;51.970;5.892;2022-08-23T06:38:36;21.30;65.50
47338;DHT22;33069;51.970;5.892;2022-08-23T06:41:07;21.30;65.70
47338;DHT22;33069;51.970;5.892;2022-08-23T06:43:33;21.40;64.90
47338;DHT22;33069;51.970;5.892;2022-08-23T06:46:26;21.50;64.60
47338;DHT22;33069;51.970;5.892;2022-08-23T06:48:52;21.70;64.10
47338;DHT22;33069;51.970;5.892;2022-08-23T06:51:30;22.10;61.20
47338;DHT22;33069;51.970;5.892;2022-08-23T06:53:58;22.30;62.00
47338;DHT22;33069;51.970;5.892;2022-08-23T06:56:26;22.40;60.60
47338;DHT22;33069;51.970;5.892;2022-08-23T06:58:53;22.50;60.40
47338;DHT22;33069;51.970;5.892;2022-08-23T07:01:45;22.90;59.50
47338;DHT22;33069;51.970;5.892;2022-08-23T07:04:12;23.20;58.70
47338;DHT22;33069;51.970;5.892;2022-08-23T07:06:39;23.20;57.00
47338;DHT22;33069;51.970;5.892;2022-08-23T07:09:05;23.00;58.10
47338;DHT22;33069;51.970;5.892;2022-08-23T07:11:31;23.10;58.70
47338;DHT22;33069;51.970;5.892;2022-08-23T07:14:04;23.10;58.70
47338;DHT22;33069;51.970;5.892;2022-08-23T07:16:34;23.00;58.70
47338;DHT22;33069;51.970;5.892;2022-08-23T07:19:01;23.00;58.60
47338;DHT22;33069;51.970;5.892;2022-08-23T07:21:27;23.10;58.30
47338;DHT22;33069;51.970;5.892;2022-08-23T07:23:52;23.00;58.70
47338;DHT22;33069;51.970;5.892;2022-08-23T07:26:19;23.20;58.70
47338;DHT22;33069;51.970;5.892;2022-08-23T07:28:46;23.00;59.00
47338;DHT22;33069;51.970;5.892;2022-08-23T07:31:29;22.90;59.00
47338;DHT22;33069;51.970;5.892;2022-08-23T07:33:57;23.20;58.30
47338;DHT22;33069;51.970;5.892;2022-08-23T07:36:24;23.70;57.40
47338;DHT22;33069;51.970;5.892;2022-08-23T07:38:54;23.80;56.00
47338;DHT22;33069;51.970;5.892;2022-08-23T07:41:23;23.60;56.80
47338;DHT22;33069;51.970;5.892;2022-08-23T07:43:49;23.60;57.60
47338;DHT22;33069;51.970;5.892;2022-08-23T07:46:15;23.60;57.60
47338;DHT22;33069;51.970;5.892;2022-08-23T07:48:41;23.80;56.50
47338;DHT22;33069;51.970;5.892;2022-08-23T07:51:10;24.00;56.30
47338;DHT22;33069;51.970;5.892;2022-08-23T07:53:36;23.70;56.90
47338;DHT22;33069;51.970;5.892;2022-08-23T07:56:07;23.70;56.70
47338;DHT22;33069;51.970;5.892;2022-08-23T07:58:33;23.60;57.40
47338;DHT22;33069;51.970;5.892;2022-08-23T08:01:16;23.70;57.60
47338;DHT22;33069;51.970;5.892;2022-08-23T08:03:44;24.00;55.40
47338;DHT22;33069;51.970;5.892;2022-08-23T08:06:15;23.80;56.80
47338;DHT22;33069;51.970;5.892;2022-08-23T08:08:42;23.60;56.60
47338;DHT22;33069;51.970;5.892;2022-08-23T08:11:09;23.70;56.60
47338;DHT22;33069;51.970;5.892;2022-08-23T08:13:40;24.10;56.10
47338;DHT22;33069;51.970;5.892;2022-08-23T08:16:07;24.10;56.00
47338;DHT22;33069;51.970;5.892;2022-08-23T08:18:36;24.10;55.80
47338;DHT22;33069;51.970;5.892;2022-08-23T08:21:03;24.30;54.60
47338;DHT22;33069;51.970;5.892;2022-08-23T08:23:29;24.50;55.00
47338;DHT22;33069;51.970;5.892;2022-08-23T08:26:03;24.70;54.50
47338;DHT22;33069;51.970;5.892;2022-08-23T08:28:30;24.40;53.30
47338;DHT22;33069;51.970;5.892;2022-08-23T08:30:56;24.30;54.70
47338;DHT22;33069;51.970;5.892;2022-08-23T08:33:24;24.30;53.60
47338;DHT22;33069;51.970;5.892;2022-08-23T08:35:50;24.30;54.00
47338;DHT22;33069;51.970;5.892;2022-08-23T08:38:16;24.40;53.00
47338;DHT22;33069;51.970;5.892;2022-08-23T08:40:42;24.70;51.80
47338;DHT22;33069;51.970;5.892;2022-08-23T08:43:22;24.80;52.40
47338;DHT22;33069;51.970;5.892;2022-08-23T08:46:10;24.60;53.00
47338;DHT22;33069;51.970;5.892;2022-08-23T08:48:45;24.70;53.40
47338;DHT22;33069;51.970;5.892;2022-08-23T08:54:06;24.90;53.10
47338;DHT22;33069;51.970;5.892;2022-08-23T08:56:37;25.20;51.90
47338;DHT22;33069;51.970;5.892;2022-08-23T08:59:09;25.00;53.30
47338;DHT22;33069;51.970;5.892;2022-08-23T09:01:37;25.20;52.70
47338;DHT22;33069;51.970;5.892;2022-08-23T09:04:04;25.40;51.90
47338;DHT22;33069;51.970;5.892;2022-08-23T09:06:56;25.60;50.80
47338;DHT22;33069;51.970;5.892;2022-08-23T09:12:49;25.40;51.70
47338;DHT22;33069;51.970;5.892;2022-08-23T09:18:09;25.40;51.90
47338;DHT22;33069;51.970;5.892;2022-08-23T09:20:35;25.70;51.00
47338;DHT22;33069;51.970;5.892;2022-08-23T09:25:33;25.80;49.50
47338;DHT22;33069;51.970;5.892;2022-08-23T09:27:59;25.60;49.90
47338;DHT22;33069;51.970;5.892;2022-08-23T09:30:46;25.80;49.80
47338;DHT22;33069;51.970;5.892;2022-08-23T09:33:22;26.00;48.50
47338;DHT22;33069;51.970;5.892;2022-08-23T09:36:12;26.20;48.30
47338;DHT22;33069;51.970;5.892;2022-08-23T09:38:53;26.20;49.70
47338;DHT22;33069;51.970;5.892;2022-08-23T09:41:23;26.50;48.00
47338;DHT22;33069;51.970;5.892;2022-08-23T09:43:50;26.50;47.60
47338;DHT22;33069;51.970;5.892;2022-08-23T09:46:46;26.40;47.70
47338;DHT22;33069;51.970;5.892;2022-08-23T09:49:24;26.30;48.40
47338;DHT22;33069;51.970;5.892;2022-08-23T09:51:51;26.30;48.30
47338;DHT22;33069;51.970;5.892;2022-08-23T09:54:31;26.50;47.10
47338;DHT22;33069;51.970;5.892;2022-08-23T09:57:03;26.80;47.60
47338;DHT22;33069;51.970;5.892;2022-08-23T10:01:58;26.80;47.10
47338;DHT22;33069;51.970;5.892;2022-08-23T10:06:53;27.10;46.10
47338;DHT22;33069;51.970;5.892;2022-08-23T10:09:30;27.50;44.20
47338;DHT22;33069;51.970;5.892;2022-08-23T10:11:57;27.70;42.90
47338;DHT22;33069;51.970;5.892;2022-08-23T10:14:26;27.70;43.70
47338;DHT22;33069;51.970;5.892;2022-08-23T10:17:21;27.80;44.10
47338;DHT22;33069;51.970;5.892;2022-08-23T10:23:10;27.50;45.40
47338;DHT22;33069;51.970;5.892;2022-08-23T10:25:59;27.70;44.70
47338;DHT22;33069;51.970;5.892;2022-08-23T10:40:32;27.90;45.90
47338;DHT22;33069;51.970;5.892;2022-08-23T10:43:14;27.80;43.70
47338;DHT22;33069;51.970;5.892;2022-08-23T10:45:45;28.10;43.70
47338;DHT22;33069;51.970;5.892;2022-08-23T10:48:23;28.30;44.60
47338;DHT22;33069;51.970;5.892;2022-08-23T10:50:59;28.30;43.00
47338;DHT22;33069;51.970;5.892;2022-08-23T10:53:37;28.00;43.00
47338;DHT22;33069;51.970;5.892;2022-08-23T10:56:04;28.20;43.50
47338;DHT22;33069;51.970;5.892;2022-08-23T10:58:58;28.10;44.40
47338;DHT22;33069;51.970;5.892;2022-08-23T11:04:08;28.50;41.50
47338;DHT22;33069;51.970;5.892;2022-08-23T11:06:45;28.00;43.50
47338;DHT22;33069;51.970;5.892;2022-08-23T11:12:10;28.30;42.70
47338;DHT22;33069;51.970;5.892;2022-08-23T11:14:57;28.40;43.00
47338;DHT22;33069;51.970;5.892;2022-08-23T11:26:04;28.80;41.10
47338;DHT22;33069;51.970;5.892;2022-08-23T11:28:41;28.50;41.80
47338;DHT22;33069;51.970;5.892;2022-08-23T11:33:44;28.80;42.20
47338;DHT22;33069;51.970;5.892;2022-08-23T11:36:22;28.60;42.60
47338;DHT22;33069;51.970;5.892;2022-08-23T11:59:42;29.40;41.30
47338;DHT22;33069;51.970;5.892;2022-08-23T12:05:24;29.40;41.60
47338;DHT22;33069;51.970;5.892;2022-08-23T12:16:10;28.90;42.70
47338;DHT22;33069;51.970;5.892;2022-08-23T12:24:29;28.80;42.80
47338;DHT22;33069;51.970;5.892;2022-08-23T12:35:30;29.30;41.80
47338;DHT22;33069;51.970;5.892;2022-08-23T12:38:06;29.30;41.70
47338;DHT22;33069;51.970;5.892;2022-08-23T12:40:44;29.30;42.40
47338;DHT22;33069;51.970;5.892;2022-08-23T12:43:18;29.50;40.80
47338;DHT22;33069;51.970;5.892;2022-08-23T12:45:48;29.70;42.10
47338;DHT22;33069;51.970;5.892;2022-08-23T12:48:18;29.50;40.80
47338;DHT22;33069;51.970;5.892;2022-08-23T12:50:52;29.50;41.00
47338;DHT22;33069;51.970;5.892;2022-08-23T12:53:34;29.40;40.60
47338;DHT22;33069;51.970;5.892;2022-08-23T12:56:07;29.70;40.90
47338;DHT22;33069;51.970;5.892;2022-08-23T12:58:36;29.60;41.40
47338;DHT22;33069;51.970;5.892;2022-08-23T13:01:07;29.30;41.30
47338;DHT22;33069;51.970;5.892;2022-08-23T13:03:44;29.40;41.40
47338;DHT22;33069;51.970;5.892;2022-08-23T13:06:13;29.50;40.40
47338;DHT22;33069;51.970;5.892;2022-08-23T13:09:04;29.60;40.70
47338;DHT22;33069;51.970;5.892;2022-08-23T13:11:30;29.50;40.90
47338;DHT22;33069;51.970;5.892;2022-08-23T13:13:56;29.60;40.40
47338;DHT22;33069;51.970;5.892;2022-08-23T13:18:50;29.50;41.20
47338;DHT22;33069;51.970;5.892;2022-08-23T13:23:42;29.60;41.90
47338;DHT22;33069;51.970;5.892;2022-08-23T13:26:40;30.00;40.10
47338;DHT22;33069;51.970;5.892;2022-08-23T13:32:03;30.40;40.90
47338;DHT22;33069;51.970;5.892;2022-08-23T13:34:42;30.80;38.60
47338;DHT22;33069;51.970;5.892;2022-08-23T13:37:24;30.20;38.70
47338;DHT22;33069;51.970;5.892;2022-08-23T13:40:04;29.90;39.50
47338;DHT22;33069;51.970;5.892;2022-08-23T13:42:57;30.00;39.50
47338;DHT22;33069;51.970;5.892;2022-08-23T13:45:29;30.10;39.80
47338;DHT22;33069;51.970;5.892;2022-08-23T13:48:19;30.10;40.50
47338;DHT22;33069;51.970;5.892;2022-08-23T13:50:42;30.50;41.00
47338;DHT22;33069;51.970;5.892;2022-08-23T13:53:09;29.70;43.10
47338;DHT22;33069;51.970;5.892;2022-08-23T13:58:13;30.50;39.70
47338;DHT22;33069;51.970;5.892;2022-08-23T14:00:40;30.50;39.30
47338;DHT22;33069;51.970;5.892;2022-08-23T14:03:06;30.30;40.70
47338;DHT22;33069;51.970;5.892;2022-08-23T14:05:33;30.40;40.40
47338;DHT22;33069;51.970;5.892;2022-08-23T14:07:58;30.70;40.70
47338;DHT22;33069;51.970;5.892;2022-08-23T14:10:25;30.70;40.60
47338;DHT22;33069;51.970;5.892;2022-08-23T14:12:53;31.00;39.70
47338;DHT22;33069;51.970;5.892;2022-08-23T14:15:19;31.20;38.20
47338;DHT22;33069;51.970;5.892;2022-08-23T14:17:49;31.00;38.60
47338;DHT22;33069;51.970;5.892;2022-08-23T14:20:17;31.00;38.70
47338;DHT22;33069;51.970;5.892;2022-08-23T14:22:44;30.80;39.60
47338;DHT22;33069;51.970;5.892;2022-08-23T14:25:11;30.80;39.30
47338;DHT22;33069;51.970;5.892;2022-08-23T14:27:39;30.90;39.70
47338;DHT22;33069;51.970;5.892;2022-08-23T14:30:08;30.70;39.30
47338;DHT22;33069;51.970;5.892;2022-08-23T14:32:36;31.00;39.40
47338;DHT22;33069;51.970;5.892;2022-08-23T14:35:04;31.20;38.50
47338;DHT22;33069;51.970;5.892;2022-08-23T14:37:30;31.70;38.00
47338;DHT22;33069;51.970;5.892;2022-08-23T14:39:56;31.30;38.70
47338;DHT22;33069;51.970;5.892;2022-08-23T14:42:23;31.70;39.30
47338;DHT22;33069;51.970;5.892;2022-08-23T14:44:49;30.80;38.70
47338;DHT22;33069;51.970;5.892;2022-08-23T14:47:15;31.20;39.20
47338;DHT22;33069;51.970;5.892;2022-08-23T14:49:41;31.10;38.00
47338;DHT22;33069;51.970;5.892;2022-08-23T14:52:07;30.60;40.40
47338;DHT22;33069;51.970;5.892;2022-08-23T14:54:33;31.00;40.30
47338;DHT22;33069;51.970;5.892;2022-08-23T14:56:59;31.40;38.10
47338;DHT22;33069;51.970;5.892;2022-08-23T14:59:25;31.30;37.70
47338;DHT22;33069;51.970;5.892;2022-08-23T15:01:52;31.50;39.50
47338;DHT22;33069;51.970;5.892;2022-08-23T15:04:21;31.70;38.10
47338;DHT22;33069;51.970;5.892;2022-08-23T15:06:48;31.50;37.60
47338;DHT22;33069;51.970;5.892;2022-08-23T15:09:15;31.50;38.50
47338;DHT22;33069;51.970;5.892;2022-08-23T15:11:40;31.90;37.20
47338;DHT22;33069;51.970;5.892;2022-08-23T15:14:06;31.60;37.70
47338;DHT22;33069;51.970;5.892;2022-08-23T15:16:32;32.20;36.70
47338;DHT22;33069;51.970;5.892;2022-08-23T15:18:58;32.00;36.80
47338;DHT22;33069;51.970;5.892;2022-08-23T15:21:25;31.50;37.60
47338;DHT22;33069;51.970;5.892;2022-08-23T15:23:51;31.60;38.10
47338;DHT22;33069;51.970;5.892;2022-08-23T15:26:21;32.30;36.90
47338;DHT22;33069;51.970;5.892;2022-08-23T15:28:47;32.30;35.60
47338;DHT22;33069;51.970;5.892;2022-08-23T15:31:14;32.30;36.90
47338;DHT22;33069;51.970;5.892;2022-08-23T15:33:40;31.80;36.90
47338;DHT22;33069;51.970;5.892;2022-08-23T15:36:06;32.00;38.40
47338;DHT22;33069;51.970;5.892;2022-08-23T15:38:34;32.30;35.80
47338;DHT22;33069;51.970;5.892;2022-08-23T15:41:01;32.10;37.00
47338;DHT22;33069;51.970;5.892;2022-08-23T15:43:27;31.50;37.70
47338;DHT22;33069;51.970;5.892;2022-08-23T15:45:53;30.80;39.40
47338;DHT22;33069;51.970;5.892;2022-08-23T15:48:27;31.30;37.40
47338;DHT22;33069;51.970;5.892;2022-08-23T15:50:56;30.70;39.20
47338;DHT22;33069;51.970;5.892;2022-08-23T15:53:22;30.20;41.30
47338;DHT22;33069;51.970;5.892;2022-08-23T15:55:48;30.50;41.40
47338;DHT22;33069;51.970;5.892;2022-08-23T15:58:18;30.80;40.10
47338;DHT22;33069;51.970;5.892;2022-08-23T16:00:44;31.30;39.80
47338;DHT22;33069;51.970;5.892;2022-08-23T16:03:11;31.50;39.00
47338;DHT22;33069;51.970;5.892;2022-08-23T16:05:38;31.80;38.60
47338;DHT22;33069;51.970;5.892;2022-08-23T16:08:06;31.90;37.20
47338;DHT22;33069;51.970;5.892;2022-08-23T16:10:33;32.00;39.10
47338;DHT22;33069;51.970;5.892;2022-08-23T16:12:59;32.00;37.90
47338;DHT22;33069;51.970;5.892;2022-08-23T16:15:25;32.10;37.10
47338;DHT22;33069;51.970;5.892;2022-08-23T16:17:51;32.30;36.20
47338;DHT22;33069;51.970;5.892;2022-08-23T16:20:17;32.60;35.60
47338;DHT22;33069;51.970;5.892;2022-08-23T16:22:42;32.00;36.80
47338;DHT22;33069;51.970;5.892;2022-08-23T16:25:09;31.80;38.40
47338;DHT22;33069;51.970;5.892;2022-08-23T16:27:35;32.50;37.00
47338;DHT22;33069;51.970;5.892;2022-08-23T16:30:02;31.70;37.00
47338;DHT22;33069;51.970;5.892;2022-08-23T16:32:28;31.90;36.80
47338;DHT22;33069;51.970;5.892;2022-08-23T16:34:54;31.20;38.60
47338;DHT22;33069;51.970;5.892;2022-08-23T16:37:20;31.60;37.60
47338;DHT22;33069;51.970;5.892;2022-08-23T16:39:45;31.40;38.20
47338;DHT22;33069;51.970;5.892;2022-08-23T16:42:12;31.50;37.80
47338;DHT22;33069;51.970;5.892;2022-08-23T16:44:39;31.00;38.70
47338;DHT22;33069;51.970;5.892;2022-08-23T16:47:05;31.10;38.40
47338;DHT22;33069;51.970;5.892;2022-08-23T16:49:32;31.30;38.30
47338;DHT22;33069;51.970;5.892;2022-08-23T16:51:59;31.20;38.70
47338;DHT22;33069;51.970;5.892;2022-08-23T16:54:25;31.70;37.30
47338;DHT22;33069;51.970;5.892;2022-08-23T16:56:53;32.00;36.80
47338;DHT22;33069;51.970;5.892;2022-08-23T16:59:19;32.00;37.70
47338;DHT22;33069;51.970;5.892;2022-08-23T17:01:54;31.50;38.60
47338;DHT22;33069;51.970;5.892;2022-08-23T17:04:21;32.10;37.60
47338;DHT22;33069;51.970;5.892;2022-08-23T17:06:49;32.80;36.40
47338;DHT22;33069;51.970;5.892;2022-08-23T17:09:19;32.30;36.60
47338;DHT22;33069;51.970;5.892;2022-08-23T17:11:45;32.00;38.10
47338;DHT22;33069;51.970;5.892;2022-08-23T17:14:11;32.00;38.00
47338;DHT22;33069;51.970;5.892;2022-08-23T17:16:37;32.30;37.20
47338;DHT22;33069;51.970;5.892;2022-08-23T17:19:04;32.80;36.00
47338;DHT22;33069;51.970;5.892;2022-08-23T17:21:30;33.00;36.30
47338;DHT22;33069;51.970;5.892;2022-08-23T17:23:55;32.60;36.90
47338;DHT22;33069;51.970;5.892;2022-08-23T17:26:21;32.80;36.30
47338;DHT22;33069;51.970;5.892;2022-08-23T17:28:47;32.50;36.90
47338;DHT22;33069;51.970;5.892;2022-08-23T17:31:13;31.80;38.80
47338;DHT22;33069;51.970;5.892;2022-08-23T17:33:40;32.60;37.20
47338;DHT22;33069;51.970;5.892;2022-08-23T17:36:06;32.10;38.60